Time;durP1;ratioP1;P1;durP2;ratioP2;P2;SDS_P1;SDS_P2;PMS_P1;PMS_P2;Temp;Humidity;BMP_temperature;BMP_pressure;BME280_temperature;BME280_humidity;BME280_pressure;Samples;Min_cycle;Max_cycle;Signal;HPM_P1;HPM_P2
2021/01/06 00:05:35;;;;;;;4.90;4.28;;;;;;;;;;4455479;28;20086;-58
2021/01/06 00:08:01;;;;;;;4.85;3.92;;;;;;;;;;4149950;34;20186;-58
2021/01/06 00:10:28;;;;;;;6.93;4.55;;;;;;;;;;4149686;34;20452;-58
2021/01/06 00:12:54;;;;;;;5.07;4.40;;;;;;;;;;4150681;34;20096;-59
2021/01/06 00:15:31;;;;;;;5.70;4.43;;;;;;;;;;4151644;34;20217;-59
2021/01/06 00:17:57;;;;;;;8.13;4.12;;;;;;;;;;4151788;34;20204;-59
2021/01/06 00:20:24;;;;;;;5.85;3.97;;;;;;;;;;4151539;34;20138;-59
2021/01/06 00:22:50;;;;;;;5.45;4.37;;;;;;;;;;4151670;34;20119;-58
2021/01/06 00:25:21;;;;;;;7.57;4.62;;;;;;;;;;4145257;34;20092;-59
2021/01/06 00:27:47;;;;;;;4.37;3.97;;;;;;;;;;4151770;34;20214;-59
2021/01/06 00:30:38;;;;;;;5.22;4.57;;;;;;;;;;4151608;34;20669;-59
2021/01/06 00:33:06;;;;;;;5.62;4.35;;;;;;;;;;4145566;34;20100;-58
2021/01/06 00:35:32;;;;;;;5.62;4.40;;;;;;;;;;4151584;34;20127;-59
2021/01/06 00:37:58;;;;;;;5.78;4.25;;;;;;;;;;4151727;34;20161;-59
2021/01/06 00:40:28;;;;;;;5.35;4.12;;;;;;;;;;4151554;34;20608;-59
2021/01/06 00:42:58;;;;;;;6.85;4.50;;;;;;;;;;4151587;34;20119;-60
2021/01/06 00:45:25;;;;;;;5.07;4.35;;;;;;;;;;4145576;34;20115;-59
2021/01/06 00:47:50;;;;;;;5.30;3.90;;;;;;;;;;4151640;34;20215;-59
2021/01/06 00:50:21;;;;;;;5.47;4.00;;;;;;;;;;4151427;34;20158;-59
2021/01/06 00:52:47;;;;;;;5.12;3.85;;;;;;;;;;4151560;34;20239;-59
2021/01/06 00:55:13;;;;;;;7.18;3.85;;;;;;;;;;4151571;34;20536;-59
2021/01/06 00:57:39;;;;;;;5.40;4.20;;;;;;;;;;4151399;34;20468;-60
2021/01/06 01:00:07;;;;;;;6.68;3.90;;;;;;;;;;4151323;34;20141;-59
2021/01/06 01:02:33;;;;;;;4.43;3.90;;;;;;;;;;4151352;34;20119;-59
2021/01/06 01:04:59;;;;;;;8.40;4.25;;;;;;;;;;4150916;34;20200;-59
2021/01/06 01:07:26;;;;;;;5.18;4.30;;;;;;;;;;4164692;34;20451;-59
2021/01/06 01:09:53;;;;;;;6.45;4.30;;;;;;;;;;4164977;34;20118;-59
2021/01/06 01:12:22;;;;;;;5.00;4.50;;;;;;;;;;4164822;34;20115;-59
2021/01/06 01:14:51;;;;;;;5.87;4.22;;;;;;;;;;4164707;34;20095;-59
2021/01/06 01:17:20;;;;;;;4.37;3.78;;;;;;;;;;4165021;34;20135;-59
2021/01/06 01:19:46;;;;;;;4.80;4.00;;;;;;;;;;4164767;34;20107;-59
2021/01/06 01:22:12;;;;;;;6.10;4.00;;;;;;;;;;4164897;34;20100;-59
2021/01/06 01:24:37;;;;;;;8.45;4.28;;;;;;;;;;4164186;34;20110;-59
2021/01/06 01:27:03;;;;;;;4.53;4.03;;;;;;;;;;4164694;34;20145;-59
2021/01/06 01:29:30;;;;;;;4.97;4.30;;;;;;;;;;4164520;34;20128;-59
2021/01/06 01:31:56;;;;;;;4.50;3.78;;;;;;;;;;4164936;34;20642;-59
2021/01/06 01:34:21;;;;;;;6.53;4.45;;;;;;;;;;4164717;34;20125;-60
2021/01/06 01:36:48;;;;;;;6.80;4.28;;;;;;;;;;4164592;34;20551;-58
2021/01/06 01:39:14;;;;;;;7.12;4.65;;;;;;;;;;4163955;34;20216;-59
2021/01/06 01:41:40;;;;;;;5.28;4.12;;;;;;;;;;4151224;34;20130;-59
2021/01/06 01:44:06;;;;;;;5.45;4.10;;;;;;;;;;4150836;34;20479;-59
2021/01/06 01:46:50;;;;;;;6.85;4.45;;;;;;;;;;4151036;34;20108;-59
2021/01/06 01:49:18;;;;;;;5.85;4.60;;;;;;;;;;4144469;34;20223;-59
2021/01/06 01:52:06;;;;;;;7.90;4.10;;;;;;;;;;4151065;34;20118;-60
2021/01/06 01:54:32;;;;;;;5.15;4.62;;;;;;;;;;4141855;34;20423;-59
2021/01/06 01:57:18;;;;;;;6.10;4.60;;;;;;;;;;4136913;34;20114;-60
2021/01/06 01:59:49;;;;;;;4.62;4.20;;;;;;;;;;4146745;34;20230;-59
2021/01/06 02:02:46;;;;;;;6.22;4.53;;;;;;;;;;4138724;34;20104;-60
2021/01/06 02:05:12;;;;;;;;;;;;;;;;;;4150853;34;20139;-60
2021/01/06 02:07:42;;;;;;;7.07;4.47;;;;;;;;;;4153533;34;20433;-60
2021/01/06 02:10:17;;;;;;;5.75;4.07;;;;;;;;;;4152043;34;20125;-59
2021/01/06 02:13:09;;;;;;;5.30;4.63;;;;;;;;;;4164458;34;20527;-60
2021/01/06 02:15:45;;;;;;;6.18;4.65;;;;;;;;;;4159513;34;20137;-60
2021/01/06 02:18:11;;;;;;;5.72;4.25;;;;;;;;;;4163155;34;20108;-60
2021/01/06 02:20:37;;;;;;;7.30;4.57;;;;;;;;;;4159706;34;20119;-60
2021/01/06 02:23:03;;;;;;;6.10;4.70;;;;;;;;;;4162837;34;20122;-60
2021/01/06 02:25:29;;;;;;;5.32;4.15;;;;;;;;;;4147612;34;20126;-60
2021/01/06 02:27:55;;;;;;;8.38;4.90;;;;;;;;;;4162893;34;20126;-60
2021/01/06 02:30:22;;;;;;;6.80;4.62;;;;;;;;;;4146693;34;20138;-60
2021/01/06 02:32:49;;;;;;;6.53;4.78;;;;;;;;;;4163042;34;20114;-60
2021/01/06 02:35:15;;;;;;;7.50;4.57;;;;;;;;;;4156952;34;20530;-59
2021/01/06 02:37:41;;;;;;;5.72;4.22;;;;;;;;;;4150966;34;20189;-59
2021/01/06 02:40:07;;;;;;;6.10;4.20;;;;;;;;;;4162722;34;20195;-60
2021/01/06 02:42:33;;;;;;;8.65;4.53;;;;;;;;;;4159100;34;20455;-60
2021/01/06 02:44:59;;;;;;;8.65;5.57;;;;;;;;;;4162520;34;20121;-60
2021/01/06 02:47:25;;;;;;;7.53;4.62;;;;;;;;;;4146860;34;20182;-60
2021/01/06 02:49:50;;;;;;;6.28;4.28;;;;;;;;;;4162661;34;20134;-60
2021/01/06 02:52:20;;;;;;;9.13;5.12;;;;;;;;;;4146202;34;20179;-60
2021/01/06 02:56:24;;;;;;;8.82;5.43;;;;;;;;;;3835329;37;20094;-60
2021/01/06 02:58:51;;;;;;;8.15;5.07;;;;;;;;;;4403714;32;20089;-61
2021/01/06 03:01:18;;;;;;;6.47;4.45;;;;;;;;;;4390746;32;20131;-59
2021/01/06 03:03:43;;;;;;;6.22;4.55;;;;;;;;;;4391103;32;20112;-59
2021/01/06 03:06:13;;;;;;;7.90;5.10;;;;;;;;;;4390725;32;20133;-59
2021/01/06 03:08:39;;;;;;;6.95;4.70;;;;;;;;;;4405472;32;20096;-59
2021/01/06 03:11:05;;;;;;;6.97;5.10;;;;;;;;;;4420388;32;20513;-59
2021/01/06 03:13:31;;;;;;;8.18;4.93;;;;;;;;;;4420296;32;20090;-59
2021/01/06 03:15:57;;;;;;;8.95;4.87;;;;;;;;;;4419848;32;20117;-59
2021/01/06 03:18:23;;;;;;;8.02;5.18;;;;;;;;;;4406140;32;20105;-58
2021/01/06 03:20:50;;;;;;;7.22;4.82;;;;;;;;;;4418609;32;20124;-58
2021/01/06 03:23:30;;;;;;;8.40;4.32;;;;;;;;;;4405802;32;20100;-59
2021/01/06 03:25:57;;;;;;;10.27;4.70;;;;;;;;;;4418480;32;20194;-58
2021/01/06 03:28:22;;;;;;;6.43;4.43;;;;;;;;;;4418936;32;20100;-58
2021/01/06 03:30:48;;;;;;;8.10;4.55;;;;;;;;;;4406108;32;20424;-59
2021/01/06 03:33:23;;;;;;;7.05;5.20;;;;;;;;;;4418382;32;20177;-59
2021/01/06 03:36:08;;;;;;;7.65;5.15;;;;;;;;;;4405985;32;20124;-59
2021/01/06 03:38:39;;;;;;;10.75;4.87;;;;;;;;;;4418783;32;20100;-58
2021/01/06 03:41:05;;;;;;;11.95;4.87;;;;;;;;;;4405552;32;20101;-58
2021/01/06 03:43:31;;;;;;;6.72;4.55;;;;;;;;;;4405784;32;20439;-59
2021/01/06 03:46:09;;;;;;;5.95;4.50;;;;;;;;;;4405746;32;20105;-59
2021/01/06 03:49:26;;;;;;;8.02;4.82;;;;;;;;;;4406447;32;20128;-58
2021/01/06 03:52:05;;;;;;;7.00;4.80;;;;;;;;;;4356817;32;20220;-58
2021/01/06 03:54:55;;;;;;;7.45;4.82;;;;;;;;;;4396376;32;20302;-58
2021/01/06 03:57:21;;;;;;;11.40;5.20;;;;;;;;;;4418235;32;20136;-58
2021/01/06 03:59:47;;;;;;;5.45;4.45;;;;;;;;;;4405538;32;20137;-58
2021/01/06 04:02:20;;;;;;;9.18;4.75;;;;;;;;;;4405711;32;20121;-58
2021/01/06 04:04:49;;;;;;;8.52;4.87;;;;;;;;;;4418318;32;20108;-58
2021/01/06 04:07:37;;;;;;;7.25;4.70;;;;;;;;;;4410368;32;20124;-58
2021/01/06 04:10:09;;;;;;;8.00;5.03;;;;;;;;;;4394840;32;20101;-58
2021/01/06 04:12:35;;;;;;;7.55;4.82;;;;;;;;;;4409361;32;20129;-59
2021/01/06 04:15:01;;;;;;;5.65;3.87;;;;;;;;;;4407672;32;20210;-58
2021/01/06 04:17:37;;;;;;;5.93;4.40;;;;;;;;;;4409325;32;20231;-59
2021/01/06 04:20:14;;;;;;;9.00;4.95;;;;;;;;;;4407810;32;20185;-58
2021/01/06 04:22:45;;;;;;;6.47;4.50;;;;;;;;;;4409549;32;20121;-59
2021/01/06 04:25:22;;;;;;;6.00;4.72;;;;;;;;;;4407854;32;20476;-59
2021/01/06 04:27:55;;;;;;;8.88;5.15;;;;;;;;;;4409262;32;20084;-58
2021/01/06 04:30:37;;;;;;;7.30;4.87;;;;;;;;;;4407559;32;20103;-58
2021/01/06 04:33:06;;;;;;;6.10;4.57;;;;;;;;;;4407900;32;20086;-59
2021/01/06 04:35:32;;;;;;;9.82;5.62;;;;;;;;;;4408871;32;20140;-59
2021/01/06 04:37:58;;;;;;;8.23;5.05;;;;;;;;;;4407910;32;20148;-60
2021/01/06 04:40:26;;;;;;;7.57;4.62;;;;;;;;;;4407505;32;20132;-59
2021/01/06 04:42:52;;;;;;;7.10;4.62;;;;;;;;;;4407703;32;20524;-60
2021/01/06 04:45:20;;;;;;;7.47;4.78;;;;;;;;;;4407316;32;20209;-59
2021/01/06 04:47:54;;;;;;;9.50;4.62;;;;;;;;;;4407861;32;20097;-60
2021/01/06 04:50:47;;;;;;;7.10;4.28;;;;;;;;;;4407642;32;20086;-59
2021/01/06 04:53:25;;;;;;;6.55;4.40;;;;;;;;;;4407661;32;20113;-59
2021/01/06 04:56:13;;;;;;;4.97;4.28;;;;;;;;;;4407177;32;20114;-60
2021/01/06 04:58:43;;;;;;;6.55;4.32;;;;;;;;;;4408909;32;20527;-59
2021/01/06 05:01:28;;;;;;;6.85;4.53;;;;;;;;;;4407288;32;20209;-59
2021/01/06 05:04:15;;;;;;;8.88;4.43;;;;;;;;;;4408692;32;20229;-59
2021/01/06 05:06:53;;;;;;;9.40;4.90;;;;;;;;;;4407432;32;20828;-59
2021/01/06 05:09:22;;;;;;;6.22;4.43;;;;;;;;;;4408929;32;20096;-61
2021/01/06 05:12:15;;;;;;;6.28;4.40;;;;;;;;;;4407594;32;20216;-59
2021/01/06 05:14:46;;;;;;;7.37;4.80;;;;;;;;;;4383558;32;20107;-60
2021/01/06 05:17:12;;;;;;;6.03;4.62;;;;;;;;;;4391381;32;20101;-61
2021/01/06 05:19:39;;;;;;;8.43;4.55;;;;;;;;;;4391442;32;20535;-61
2021/01/06 05:22:05;;;;;;;7.93;5.00;;;;;;;;;;4374709;32;20121;-61
2021/01/06 05:24:37;;;;;;;8.07;5.03;;;;;;;;;;4391597;32;20117;-61
2021/01/06 05:27:12;;;;;;;6.82;4.40;;;;;;;;;;4393085;32;20114;-61
2021/01/06 05:29:38;;;;;;;6.22;4.60;;;;;;;;;;4393236;32;20693;-62
2021/01/06 05:32:04;;;;;;;7.57;4.87;;;;;;;;;;4377413;32;20193;-61
2021/01/06 05:34:30;;;;;;;11.75;5.55;;;;;;;;;;4376807;32;20090;-62
2021/01/06 05:36:56;;;;;;;8.50;5.80;;;;;;;;;;4376214;32;20242;-62
2021/01/06 05:39:24;;;;;;;8.73;5.85;;;;;;;;;;4372996;32;20125;-61
2021/01/06 05:41:54;;;;;;;15.00;5.75;;;;;;;;;;4375102;32;20528;-61
2021/01/06 05:44:20;;;;;;;9.48;6.18;;;;;;;;;;4376325;32;20618;-61
2021/01/06 05:46:46;;;;;;;8.05;5.82;;;;;;;;;;4376153;32;20092;-61
2021/01/06 05:49:22;;;;;;;7.93;5.25;;;;;;;;;;4376397;32;20093;-61
2021/01/06 05:52:01;;;;;;;10.00;5.47;;;;;;;;;;4375545;32;20113;-60
2021/01/06 05:54:54;;;;;;;7.93;5.37;;;;;;;;;;4362055;32;20117;-61
2021/01/06 05:57:31;;;;;;;8.75;5.30;;;;;;;;;;4376092;32;20180;-60
2021/01/06 06:00:19;;;;;;;8.25;5.25;;;;;;;;;;4391104;32;20121;-62
2021/01/06 06:02:48;;;;;;;7.65;5.45;;;;;;;;;;4390940;32;20109;-61
2021/01/06 06:05:42;;;;;;;8.48;5.30;;;;;;;;;;4389498;32;20206;-61
2021/01/06 06:08:07;;;;;;;8.25;5.75;;;;;;;;;;4382720;32;20129;-59
2021/01/06 06:10:59;;;;;;;8.38;5.90;;;;;;;;;;4377652;32;20501;-57
2021/01/06 06:13:49;;;;;;;10.48;5.50;;;;;;;;;;4388225;32;20125;-58
2021/01/06 06:16:26;;;;;;;7.87;5.70;;;;;;;;;;4385123;32;20108;-59
2021/01/06 06:19:23;;;;;;;8.32;5.68;;;;;;;;;;4376418;32;20198;-59
2021/01/06 06:22:29;;;;;;;8.98;5.47;;;;;;;;;;4366177;32;20225;-60
2021/01/06 06:24:59;;;;;;;8.38;5.37;;;;;;;;;;4390985;32;20129;-59
2021/01/06 06:27:34;;;;;;;11.65;6.28;;;;;;;;;;4392934;32;20120;-63
2021/01/06 06:30:26;;;;;;;8.70;5.87;;;;;;;;;;4391042;32;20110;-63
2021/01/06 06:32:52;;;;;;;5.55;4.53;;;;;;;;;;4382509;32;20102;-62
2021/01/06 06:35:40;;;;;;;7.25;5.30;;;;;;;;;;4376051;32;20124;-62
2021/01/06 06:38:07;;;;;;;11.70;5.50;;;;;;;;;;4387350;32;20105;-62
2021/01/06 06:41:00;;;;;;;7.68;5.45;;;;;;;;;;4391029;32;20113;-62
2021/01/06 06:43:39;;;;;;;9.98;5.20;;;;;;;;;;4392605;32;20140;-62
2021/01/06 06:46:11;;;;;;;7.53;5.32;;;;;;;;;;4392400;32;20533;-63
2021/01/06 06:49:06;;;;;;;6.68;5.68;;;;;;;;;;4390828;32;20147;-63
2021/01/06 06:52:20;;;;;;;7.22;5.25;;;;;;;;;;4371342;32;20425;-62
2021/01/06 06:54:48;;;;;;;8.57;5.10;;;;;;;;;;4342035;32;20102;-63
2021/01/06 06:57:21;;;;;;;8.20;6.10;;;;;;;;;;4387698;32;20111;-62
2021/01/06 07:00:08;;;;;;;8.65;6.18;;;;;;;;;;4375589;32;20102;-61
2021/01/06 07:02:55;;;;;;;8.85;6.30;;;;;;;;;;4364156;32;20186;-62
2021/01/06 07:05:31;;;;;;;8.23;5.40;;;;;;;;;;4364043;32;20098;-62
2021/01/06 07:08:01;;;;;;;10.13;5.72;;;;;;;;;;4375805;32;20109;-62
2021/01/06 07:10:29;;;;;;;7.57;5.47;;;;;;;;;;4377341;32;20175;-62
2021/01/06 07:13:01;;;;;;;7.43;5.20;;;;;;;;;;4363339;32;20106;-63
2021/01/06 07:15:34;;;;;;;8.90;5.35;;;;;;;;;;4363945;32;20109;-62
2021/01/06 07:18:19;;;;;;;8.25;6.30;;;;;;;;;;4377122;32;20101;-63
2021/01/06 07:20:45;;;;;;;10.05;7.12;;;;;;;;;;4375851;32;20203;-63
2021/01/06 07:23:18;;;;;;;7.28;6.40;;;;;;;;;;4376971;32;20120;-64
2021/01/06 07:25:46;;;;;;;7.35;5.95;;;;;;;;;;4375743;32;20193;-65
2021/01/06 07:28:14;;;;;;;8.23;5.43;;;;;;;;;;4377035;32;20090;-65
2021/01/06 07:30:43;;;;;;;6.70;4.87;;;;;;;;;;4363142;32;20116;-64
2021/01/06 07:33:21;;;;;;;9.98;5.15;;;;;;;;;;4376512;32;20453;-64
2021/01/06 07:35:47;;;;;;;7.55;4.25;;;;;;;;;;4375637;32;20114;-64
2021/01/06 07:38:13;;;;;;;9.38;5.40;;;;;;;;;;4376806;32;20198;-64
2021/01/06 07:40:40;;;;;;;6.85;5.50;;;;;;;;;;4374854;32;20089;-64
2021/01/06 07:43:06;;;;;;;7.32;5.37;;;;;;;;;;4361816;32;20512;-65
2021/01/06 07:45:36;;;;;;;7.50;5.40;;;;;;;;;;4386999;32;20127;-64
2021/01/06 07:48:05;;;;;;;8.65;5.12;;;;;;;;;;4388171;32;20117;-61
2021/01/06 07:50:31;;;;;;;8.57;5.32;;;;;;;;;;4377575;32;20449;-63
2021/01/06 07:53:05;;;;;;;8.63;5.57;;;;;;;;;;4377728;32;20234;-63
2021/01/06 07:55:36;;;;;;;8.48;5.65;;;;;;;;;;4377385;32;20223;-63
2021/01/06 07:58:19;;;;;;;10.93;6.97;;;;;;;;;;4377541;32;20086;-63
2021/01/06 08:00:59;;;;;;;9.38;6.75;;;;;;;;;;4378116;32;20116;-62
2021/01/06 08:03:34;;;;;;;8.88;6.40;;;;;;;;;;4377048;32;20101;-61
2021/01/06 08:06:01;;;;;;;10.98;5.62;;;;;;;;;;4384697;32;20109;-62
2021/01/06 08:08:28;;;;;;;8.02;5.00;;;;;;;;;;4393753;32;20460;-62
2021/01/06 08:11:06;;;;;;;5.28;4.07;;;;;;;;;;4379756;32;20129;-61
2021/01/06 08:13:34;;;;;;;10.70;5.93;;;;;;;;;;4393771;32;20635;-61
2021/01/06 08:16:06;;;;;;;6.62;4.47;;;;;;;;;;4382712;32;20114;-62
2021/01/06 08:18:53;;;;;;;6.40;4.75;;;;;;;;;;4378852;32;20139;-61
2021/01/06 08:21:23;;;;;;;6.15;4.50;;;;;;;;;;4391138;32;20108;-62
2021/01/06 08:23:59;;;;;;;7.37;5.00;;;;;;;;;;4381731;32;20522;-61
2021/01/06 08:26:26;;;;;;;8.30;5.07;;;;;;;;;;4377314;32;20113;-61
2021/01/06 08:29:10;;;;;;;7.45;4.95;;;;;;;;;;4377491;32;20102;-62
2021/01/06 08:31:47;;;;;;;6.75;5.05;;;;;;;;;;4378672;32;21018;-62
2021/01/06 08:34:26;;;;;;;7.12;4.68;;;;;;;;;;4387837;32;20193;-62
2021/01/06 08:36:57;;;;;;;6.65;5.20;;;;;;;;;;4393864;32;20129;-62
2021/01/06 08:39:24;;;;;;;8.07;4.87;;;;;;;;;;4392154;32;20105;-62
2021/01/06 08:41:50;;;;;;;7.35;5.15;;;;;;;;;;4393654;32;20125;-61
2021/01/06 08:44:32;;;;;;;9.68;5.03;;;;;;;;;;4382787;32;20716;-62
2021/01/06 08:47:00;;;;;;;9.68;6.10;;;;;;;;;;4378577;32;20129;-61
2021/01/06 08:49:38;;;;;;;8.75;5.25;;;;;;;;;;4385902;32;20215;-61
2021/01/06 08:52:20;;;;;;;9.43;6.05;;;;;;;;;;4393647;32;20191;-60
2021/01/06 08:55:17;;;;;;;7.18;5.03;;;;;;;;;;4391915;32;20102;-60
2021/01/06 08:57:43;;;;;;;7.85;5.70;;;;;;;;;;4385224;32;20546;-61
2021/01/06 09:00:22;;;;;;;11.32;6.60;;;;;;;;;;4392370;32;20120;-61
2021/01/06 09:03:08;;;;;;;9.95;7.05;;;;;;;;;;4393647;32;20086;-61
2021/01/06 09:05:40;;;;;;;12.15;8.45;;;;;;;;;;4391337;32;20530;-62
2021/01/06 09:08:14;;;;;;;11.82;8.85;;;;;;;;;;4393696;32;20129;-62
2021/01/06 09:10:46;;;;;;;7.28;5.57;;;;;;;;;;4393564;32;20090;-63
2021/01/06 09:13:15;;;;;;;8.50;5.05;;;;;;;;;;4379167;32;20109;-63
2021/01/06 09:15:52;;;;;;;9.30;4.62;;;;;;;;;;4391959;32;20173;-62
2021/01/06 09:18:27;;;;;;;5.68;4.65;;;;;;;;;;4392613;32;20112;-62
2021/01/06 09:21:04;;;;;;;6.12;4.78;;;;;;;;;;4379677;32;20121;-63
2021/01/06 09:23:30;;;;;;;7.82;5.53;;;;;;;;;;4379867;32;20167;-62
2021/01/06 09:25:57;;;;;;;17.20;13.13;;;;;;;;;;4379532;32;20116;-62
2021/01/06 09:28:23;;;;;;;17.12;12.18;;;;;;;;;;4379602;32;20118;-62
2021/01/06 09:30:49;;;;;;;10.10;7.45;;;;;;;;;;4391929;32;20515;-62
2021/01/06 09:33:34;;;;;;;8.60;5.55;;;;;;;;;;4391996;32;20125;-62
2021/01/06 09:36:00;;;;;;;9.50;5.20;;;;;;;;;;4391972;32;20093;-62
2021/01/06 09:38:31;;;;;;;9.75;5.50;;;;;;;;;;4392011;32;20214;-62
2021/01/06 09:41:02;;;;;;;9.07;5.65;;;;;;;;;;4379572;32;20144;-62
2021/01/06 09:43:50;;;;;;;7.05;5.20;;;;;;;;;;4391966;32;20225;-62
2021/01/06 09:46:26;;;;;;;10.98;5.85;;;;;;;;;;4391979;32;20233;-62
2021/01/06 09:48:55;;;;;;;7.62;6.45;;;;;;;;;;4380192;32;20447;-62
2021/01/06 09:51:21;;;;;;;12.50;8.65;;;;;;;;;;4391683;32;20177;-63
2021/01/06 09:53:50;;;;;;;11.38;7.78;;;;;;;;;;4379414;32;20113;-63
2021/01/06 09:56:16;;;;;;;11.90;7.72;;;;;;;;;;4391526;32;20106;-62
2021/01/06 09:58:42;;;;;;;11.00;8.60;;;;;;;;;;4379010;32;20101;-63
2021/01/06 10:01:23;;;;;;;11.23;8.98;;;;;;;;;;4392851;32;20194;-63
2021/01/06 10:03:51;;;;;;;13.90;11.35;;;;;;;;;;4392536;32;20576;-63
2021/01/06 10:06:38;;;;;;;18.00;15.00;;;;;;;;;;4392979;32;20125;-63
2021/01/06 10:09:21;;;;;;;20.27;11.98;;;;;;;;;;4392926;32;20204;-63
2021/01/06 10:12:16;;;;;;;14.95;11.00;;;;;;;;;;4391808;32;20259;-63
2021/01/06 10:15:08;;;;;;;10.35;7.47;;;;;;;;;;4392857;32;20105;-63
2021/01/06 10:17:39;;;;;;;9.40;7.32;;;;;;;;;;4377800;32;20125;-64
2021/01/06 10:20:13;;;;;;;7.37;6.20;;;;;;;;;;4379187;32;20214;-64
2021/01/06 10:22:55;;;;;;;10.20;6.65;;;;;;;;;;4391539;32;20476;-64
2021/01/06 10:25:41;;;;;;;8.23;5.70;;;;;;;;;;4392608;32;20160;-64
2021/01/06 10:28:22;;;;;;;8.05;5.65;;;;;;;;;;4392892;32;20137;-64
2021/01/06 10:31:21;;;;;;;8.70;5.90;;;;;;;;;;4392850;32;20216;-64
2021/01/06 10:34:05;;;;;;;11.77;7.03;;;;;;;;;;4390803;32;20553;-64
2021/01/06 10:36:57;;;;;;;9.82;7.03;;;;;;;;;;4392747;32;20109;-64
2021/01/06 10:39:28;;;;;;;9.15;6.40;;;;;;;;;;4378016;32;20128;-64
2021/01/06 10:42:01;;;;;;;10.38;6.05;;;;;;;;;;4391332;32;20131;-64
2021/01/06 10:44:29;;;;;;;9.02;6.45;;;;;;;;;;4392681;32;20505;-63
2021/01/06 10:46:55;;;;;;;9.40;5.78;;;;;;;;;;4392748;32;20500;-64
2021/01/06 10:49:21;;;;;;;10.13;5.78;;;;;;;;;;4392443;32;20508;-64
2021/01/06 10:51:59;;;;;;;7.03;6.03;;;;;;;;;;4392522;32;20132;-63
2021/01/06 10:54:41;;;;;;;9.55;5.97;;;;;;;;;;4392455;32;20122;-64
2021/01/06 10:57:46;;;;;;;7.45;5.80;;;;;;;;;;4379920;32;20106;-61
2021/01/06 11:00:12;;;;;;;9.40;5.50;;;;;;;;;;4392459;32;20181;-63
2021/01/06 11:03:00;;;;;;;8.90;5.62;;;;;;;;;;4392702;32;20101;-63
2021/01/06 11:05:41;;;;;;;10.35;5.95;;;;;;;;;;4392530;32;20168;-63
2021/01/06 11:08:24;;;;;;;10.77;5.85;;;;;;;;;;4391211;32;20444;-64
2021/01/06 11:10:55;;;;;;;9.10;5.50;;;;;;;;;;4390910;32;20160;-64
2021/01/06 11:13:45;;;;;;;8.80;6.25;;;;;;;;;;4390979;32;20624;-65
2021/01/06 11:16:16;;;;;;;8.63;5.82;;;;;;;;;;4392658;32;20093;-65
2021/01/06 11:18:45;;;;;;;9.10;6.72;;;;;;;;;;4393266;32;20112;-64
2021/01/06 11:21:19;;;;;;;9.82;6.45;;;;;;;;;;4394691;32;20117;-65
2021/01/06 11:23:56;;;;;;;12.20;6.73;;;;;;;;;;4394715;32;20105;-65
2021/01/06 11:26:31;;;;;;;11.77;6.47;;;;;;;;;;4394813;32;20321;-64
2021/01/06 11:29:16;;;;;;;10.20;6.43;;;;;;;;;;4394440;32;20121;-64
2021/01/06 11:31:50;;;;;;;8.63;6.87;;;;;;;;;;4394509;32;20200;-64
2021/01/06 11:34:15;;;;;;;14.95;7.57;;;;;;;;;;4394305;32;20129;-64
2021/01/06 11:36:53;;;;;;;9.13;6.85;;;;;;;;;;4394569;32;20233;-64
2021/01/06 11:39:37;;;;;;;10.75;7.07;;;;;;;;;;4392844;32;20514;-64
2021/01/06 11:42:16;;;;;;;14.23;7.47;;;;;;;;;;4394400;32;20513;-65
2021/01/06 11:45:11;;;;;;;11.18;7.72;;;;;;;;;;4394575;32;20228;-65
2021/01/06 11:47:57;;;;;;;10.65;6.93;;;;;;;;;;4393291;32;20164;-64
2021/01/06 11:50:32;;;;;;;9.80;7.87;;;;;;;;;;4394114;32;20100;-64
2021/01/06 11:53:13;;;;;;;16.20;7.87;;;;;;;;;;4394505;32;20105;-64
2021/01/06 11:55:41;;;;;;;9.70;7.85;;;;;;;;;;4394115;32;20127;-64
2021/01/06 11:58:32;;;;;;;10.10;6.93;;;;;;;;;;4380361;32;20622;-63
2021/01/06 12:01:00;;;;;;;9.32;7.78;;;;;;;;;;4393000;32;20114;-63
2021/01/06 12:03:41;;;;;;;12.10;7.87;;;;;;;;;;4394422;32;20102;-64
2021/01/06 12:06:18;;;;;;;11.95;8.45;;;;;;;;;;4392744;32;20247;-63
2021/01/06 12:09:21;;;;;;;14.05;7.90;;;;;;;;;;4394189;32;20121;-64
2021/01/06 12:11:59;;;;;;;11.05;7.30;;;;;;;;;;4394308;32;20090;-64
2021/01/06 12:14:29;;;;;;;11.05;7.68;;;;;;;;;;4392871;32;20100;-63
2021/01/06 12:17:13;;;;;;;10.75;9.13;;;;;;;;;;4392763;32;20095;-63
2021/01/06 12:20:08;;;;;;;12.63;8.70;;;;;;;;;;4394034;32;20222;-63
2021/01/06 12:22:35;;;;;;;12.15;7.97;;;;;;;;;;4392604;32;20118;-63
2021/01/06 12:25:26;;;;;;;12.77;9.38;;;;;;;;;;4392764;32;20210;-63
2021/01/06 12:27:59;;;;;;;11.68;9.45;;;;;;;;;;4393711;32;20176;-63
2021/01/06 12:30:30;;;;;;;15.32;9.65;;;;;;;;;;4380313;32;20523;-63
2021/01/06 12:33:01;;;;;;;12.45;9.25;;;;;;;;;;4392654;32;20204;-63
2021/01/06 12:35:34;;;;;;;14.55;9.15;;;;;;;;;;4380173;32;20133;-63
2021/01/06 12:38:12;;;;;;;12.60;8.93;;;;;;;;;;4392466;32;20112;-62
2021/01/06 12:41:06;;;;;;;12.23;7.95;;;;;;;;;;4394113;32;20531;-62
2021/01/06 12:43:40;;;;;;;12.13;8.77;;;;;;;;;;4394006;32;20397;-63
2021/01/06 12:46:11;;;;;;;12.55;9.20;;;;;;;;;;4393887;32;20105;-63
2021/01/06 12:49:04;;;;;;;13.35;9.70;;;;;;;;;;4392527;32;20102;-62
2021/01/06 12:51:34;;;;;;;14.13;9.25;;;;;;;;;;4374998;32;20186;-62
2021/01/06 12:54:10;;;;;;;15.57;9.70;;;;;;;;;;4395008;32;20135;-62
2021/01/06 12:56:42;;;;;;;13.40;9.70;;;;;;;;;;4407600;32;20481;-63
2021/01/06 12:59:28;;;;;;;15.15;9.02;;;;;;;;;;4394776;32;20535;-63
2021/01/06 13:02:14;;;;;;;;;;;;;;;;;;4408213;32;20258;-63
2021/01/06 13:04:42;;;;;;;10.82;7.93;;;;;;;;;;4407321;32;19975;-64
2021/01/06 13:07:19;;;;;;;10.57;7.85;;;;;;;;;;4395015;32;20112;-62
2021/01/06 13:09:56;;;;;;;16.10;8.00;;;;;;;;;;4408950;32;20113;-62
2021/01/06 13:12:44;;;;;;;11.75;9.43;;;;;;;;;;4407759;32;20093;-62
2021/01/06 13:15:32;;;;;;;13.07;9.27;;;;;;;;;;4406915;32;20117;-62
2021/01/06 13:18:04;;;;;;;13.95;9.65;;;;;;;;;;4392958;32;20189;-62
2021/01/06 13:20:40;;;;;;;13.07;9.15;;;;;;;;;;4393262;32;20203;-62
2021/01/06 13:23:28;;;;;;;13.55;8.65;;;;;;;;;;4393395;32;20524;-62
2021/01/06 13:26:02;;;;;;;19.27;9.02;;;;;;;;;;4392296;32;20224;-62
2021/01/06 13:28:35;;;;;;;10.60;7.87;;;;;;;;;;4392178;32;20212;-62
2021/01/06 13:31:20;;;;;;;11.25;7.93;;;;;;;;;;4379719;32;20117;-62
2021/01/06 13:34:08;;;;;;;16.10;9.07;;;;;;;;;;4391998;32;20512;-62
2021/01/06 13:36:43;;;;;;;13.60;8.85;;;;;;;;;;4393285;32;20181;-62
2021/01/06 13:39:34;;;;;;;13.57;9.10;;;;;;;;;;4392326;32;20089;-63
2021/01/06 13:42:23;;;;;;;13.90;8.13;;;;;;;;;;4392029;32;20206;-62
2021/01/06 13:44:49;;;;;;;16.08;8.80;;;;;;;;;;4369024;32;20100;-61
2021/01/06 13:47:18;;;;;;;13.52;8.57;;;;;;;;;;4379316;32;20198;-61
2021/01/06 13:49:53;;;;;;;13.98;9.23;;;;;;;;;;4379635;32;20209;-61
2021/01/06 13:52:22;;;;;;;15.40;9.10;;;;;;;;;;4393104;32;20101;-63
2021/01/06 13:55:07;;;;;;;12.37;7.82;;;;;;;;;;4391161;32;20109;-62
2021/01/06 13:57:54;;;;;;;12.70;7.80;;;;;;;;;;4393359;32;20152;-61
2021/01/06 14:00:20;;;;;;;11.12;7.68;;;;;;;;;;4393070;32;20263;-61
2021/01/06 14:03:19;;;;;;;12.30;7.30;;;;;;;;;;4393089;32;20128;-61
2021/01/06 14:05:48;;;;;;;10.63;7.65;;;;;;;;;;4393238;32;20102;-62
2021/01/06 14:08:26;;;;;;;10.50;7.00;;;;;;;;;;4379326;32;20181;-62
2021/01/06 14:11:13;;;;;;;11.35;8.00;;;;;;;;;;4379627;32;20554;-63
2021/01/06 14:14:12;;;;;;;14.87;7.35;;;;;;;;;;4393011;32;20101;-63
2021/01/06 14:16:51;;;;;;;9.20;6.50;;;;;;;;;;4376717;32;20110;-63
2021/01/06 14:19:52;;;;;;;11.88;7.93;;;;;;;;;;4392776;32;20148;-63
2021/01/06 14:22:33;;;;;;;12.63;8.00;;;;;;;;;;4382806;32;20193;-64
2021/01/06 14:25:00;;;;;;;12.70;7.50;;;;;;;;;;4392809;32;20106;-63
2021/01/06 14:27:41;;;;;;;10.02;7.75;;;;;;;;;;4392946;32;20098;-63
2021/01/06 14:30:08;;;;;;;12.15;7.53;;;;;;;;;;4391656;32;20243;-64
2021/01/06 14:32:38;;;;;;;11.15;7.72;;;;;;;;;;4392808;32;20145;-63
2021/01/06 14:35:13;;;;;;;12.07;7.90;;;;;;;;;;4378933;32;20101;-64
2021/01/06 14:38:04;;;;;;;12.30;7.87;;;;;;;;;;4392875;32;20092;-65
2021/01/06 14:40:50;;;;;;;14.87;7.82;;;;;;;;;;4388298;32;20117;-63
2021/01/06 14:43:15;;;;;;;12.90;8.13;;;;;;;;;;4391312;32;20117;-64
2021/01/06 14:46:10;;;;;;;11.77;7.72;;;;;;;;;;4392764;32;20089;-64
2021/01/06 14:48:56;;;;;;;11.65;7.32;;;;;;;;;;4391531;32;20211;-64
2021/01/06 14:51:41;;;;;;;;;;;;;;;;;;4391570;32;20129;-64
2021/01/06 14:54:14;;;;;;;14.07;7.90;;;;;;;;;;4392229;32;19989;-63
2021/01/06 14:56:51;;;;;;;13.23;8.52;;;;;;;;;;4378807;32;20127;-63
2021/01/06 14:59:25;;;;;;;13.90;8.60;;;;;;;;;;4378902;32;20513;-63
2021/01/06 15:01:57;;;;;;;12.68;8.35;;;;;;;;;;4391395;32;20097;-63
2021/01/06 15:04:33;;;;;;;12.45;8.02;;;;;;;;;;4392661;32;20101;-63
2021/01/06 15:07:20;;;;;;;12.32;7.70;;;;;;;;;;4379157;32;20116;-63
2021/01/06 15:10:24;;;;;;;10.90;7.40;;;;;;;;;;4383675;32;20132;-63
2021/01/06 15:12:59;;;;;;;11.85;8.35;;;;;;;;;;4389636;32;20125;-63
2021/01/06 15:15:32;;;;;;;14.93;8.90;;;;;;;;;;4392298;32;20093;-63
2021/01/06 15:18:05;;;;;;;10.60;6.85;;;;;;;;;;4392111;32;20548;-63
2021/01/06 15:20:42;;;;;;;12.80;8.23;;;;;;;;;;4392118;32;20200;-63
2021/01/06 15:23:25;;;;;;;12.55;9.05;;;;;;;;;;4391216;32;20114;-63
2021/01/06 15:25:55;;;;;;;12.60;7.93;;;;;;;;;;4379888;32;20098;-64
2021/01/06 15:28:40;;;;;;;12.50;7.75;;;;;;;;;;4392198;32;20192;-64
2021/01/06 15:31:12;;;;;;;11.63;8.00;;;;;;;;;;4378923;32;20492;-64